Terminal Aerodrome Forecast
Issued by NWS

Home | Current Version | Previous Version | Text Only | Print | Product List | Glossary On
Versions: 1 2 3 4 5 6 7 8 9 10 11 12 13 14 15 16 17 18 19
000
FTUS43 KSGF 310900 AAA
TAFJLN
TAF AMD
KJLN 310911Z 3109/0106 36004KT 3SM -DZ BR BKN004 OVC007
     FM311400 36005KT 6SM -DZ BR SCT004 OVC007
     FM311700 36006KT P6SM OVC015
     FM311900 02008KT P6SM BKN025
     FM010000 03005KT P6SM OVC012=

USA.gov is the U.S. government's official web portal to all federal, state and local government web resources and services.